Time;durP1;ratioP1;P1;durP2;ratioP2;P2;SDS_P1;SDS_P2;PMS_P1;PMS_P2;Temp;Humidity;BMP_temperature;BMP_pressure;BME280_temperature;BME280_humidity;BME280_pressure;Samples;Min_cycle;Max_cycle;Signal;HPM_P1;HPM_P2
2023/10/17 00:02:49;;;;;;;;;;;;;;;;;;5034969;28;20359;-25
2023/10/17 00:05:15;;;;;;;;;;;;;;;;;;5035223;28;19917;-23
2023/10/17 00:07:45;;;;;;;;;;;;;;;;;;5035963;28;19962;-23
2023/10/17 00:10:15;;;;;;;;;;;;;;;;;;5035192;28;19909;-29
2023/10/17 00:12:44;;;;;;;;;;;;;;;;;;5034918;28;20279;-27
2023/10/17 00:15:35;;;;;;;;;;;;;;;;;;5035147;28;19909;-30
2023/10/17 00:18:04;;;;;;;;;;;;;;;;;;5034264;28;19909;-24
2023/10/17 00:20:37;;;;;;;;;;;;;;;;;;5035126;28;20002;-23
2023/10/17 00:23:04;;;;;;;;;;;;;;;;;;5034883;28;20020;-23
2023/10/17 00:25:30;;;;;;;;;;;;;;;;;;5034719;28;19956;-27
2023/10/17 00:27:57;;;;;;;;;;;;;;;;;;5035001;28;19972;-27
2023/10/17 00:30:23;;;;;;;;;;;;;;;;;;5034755;28;19916;-24
2023/10/17 00:32:49;;;;;;;;;;;;;;;;;;5034603;28;19913;-24
2023/10/17 00:35:18;;;;;;;;;;;;;;;;;;5035019;28;19945;-26
2023/10/17 00:37:53;;;;;;;;;;;;;;;;;;5034932;28;20260;-24
2023/10/17 00:40:37;;;;;;;;;;;;;;;;;;5035007;28;19917;-25
2023/10/17 00:43:11;;;;;;;;;;;;;;;;;;5034501;28;20027;-26
2023/10/17 00:45:38;;;;;;;;;;;;;;;;;;5034620;28;19909;-25
2023/10/17 00:48:08;;;;;;;;;;;;;;;;;;5034531;28;19909;-25
2023/10/17 00:50:34;;;;;;;;;;;;;;;;;;5034449;28;19909;-22
2023/10/17 00:53:00;;;;;;;;;;;;;;;;;;5034571;28;19924;-24
2023/10/17 00:55:26;;;;;;;;;;;;;;;;;;5034442;28;19960;-26
2023/10/17 00:57:52;;;;;;;;;;;;;;;;;;5034792;28;20294;-29
2023/10/17 01:00:35;;;;;;;;;;;;;;;;;;5034737;28;19996;-22
2023/10/17 01:03:07;;;;;;;;;;;;;;;;;;5034469;28;19956;-23
2023/10/17 01:05:33;;;;;;;;;;;;;;;;;;5034388;28;19913;-26
2023/10/17 01:07:59;;;;;;;;;;;;;;;;;;5034731;28;19910;-20
2023/10/17 01:10:26;;;;;;;;;;;;;;;;;;5034396;28;19956;-23
2023/10/17 01:12:53;;;;;;;;;;;;;;;;;;5034175;28;19928;-25
2023/10/17 01:15:19;;;;;;;;;;;;;;;;;;5034284;28;19940;-22
2023/10/17 01:17:45;;;;;;;;;;;;;;;;;;5034311;28;20332;-23
2023/10/17 01:20:15;;;;;;;;;;;;;;;;;;5034555;28;19966;-26
2023/10/17 01:22:42;;;;;;;;;;;;;;;;;;5034147;28;20018;-23
2023/10/17 01:25:19;;;;;;;;;;;;;;;;;;5034486;28;19909;-23
2023/10/17 01:27:45;;;;;;;;;;;;;;;;;;5034973;28;19909;-22
2023/10/17 01:30:11;;;;;;;;;;;;;;;;;;5034550;28;19936;-24
2023/10/17 01:32:37;;;;;;;;;;;;;;;;;;5034051;28;19913;-24
2023/10/17 01:35:03;;;;;;;;;;;;;;;;;;5035552;28;19928;-26
2023/10/17 01:37:29;;;;;;;;;;;;;;;;;;5037745;28;19995;-27
2023/10/17 01:39:55;;;;;;;;;;;;;;;;;;5037918;28;19919;-24
2023/10/17 01:42:21;;;;;;;;;;;;;;;;;;5037564;28;20392;-22
2023/10/17 01:44:47;;;;;;;;;;;;;;;;;;5037852;28;20307;-28
2023/10/17 01:47:14;;;;;;;;;;;;;;;;;;5037541;28;19982;-29
2023/10/17 01:49:40;;;;;;;;;;;;;;;;;;5037513;28;19909;-18
2023/10/17 01:52:08;;;;;;;;;;;;;;;;;;5019828;28;19913;-27
2023/10/17 01:54:36;;;;;;;;;;;;;;;;;;5037652;28;20332;-26
2023/10/17 01:57:06;;;;;;;;;;;;;;;;;;5037277;28;19913;-28
2023/10/17 01:59:34;;;;;;;;;;;;;;;;;;5037532;28;19913;-27
2023/10/17 02:02:03;;;;;;;;;;;;;;;;;;5037434;28;20067;-24
2023/10/17 02:04:30;;;;;;;;;;;;;;;;;;5037023;28;19921;-23
2023/10/17 02:06:55;;;;;;;;;;;;;;;;;;5037432;28;19941;-23
2023/10/17 02:09:44;;;;;;;;;;;;;;;;;;5037101;28;20356;-24
2023/10/17 02:12:10;;;;;;;;;;;;;;;;;;5037191;28;20273;-28
2023/10/17 02:14:37;;;;;;;;;;;;;;;;;;5037224;28;20039;-24
2023/10/17 02:17:03;;;;;;;;;;;;;;;;;;5036959;28;19971;-27
2023/10/17 02:19:32;;;;;;;;;;;;;;;;;;5037199;28;19913;-22
2023/10/17 02:22:01;;;;;;;;;;;;;;;;;;5019380;28;19974;-29
2023/10/17 02:24:29;;;;;;;;;;;;;;;;;;5037128;28;19923;-24
2023/10/17 02:26:55;;;;;;;;;;;;;;;;;;5037561;28;19920;-23
2023/10/17 02:29:24;;;;;;;;;;;;;;;;;;5036770;28;19909;-29
2023/10/17 02:31:52;;;;;;;;;;;;;;;;;;5036900;28;19967;-23
2023/10/17 02:34:22;;;;;;;;;;;;;;;;;;5036624;28;19913;-24
2023/10/17 02:36:48;;;;;;;;;;;;;;;;;;5036555;28;20042;-28
2023/10/17 02:39:14;;;;;;;;;;;;;;;;;;5036815;28;19960;-21
2023/10/17 02:41:45;;;;;;;;;;;;;;;;;;5036536;28;19917;-24
2023/10/17 02:44:12;;;;;;;;;;;;;;;;;;5036507;28;20051;-24
2023/10/17 02:46:38;;;;;;;;;;;;;;;;;;5035185;28;19905;-27
2023/10/17 02:49:07;;;;;;;;;;;;;;;;;;5036326;28;20070;-22
2023/10/17 02:51:36;;;;;;;;;;;;;;;;;;5036250;28;19919;-22
2023/10/17 02:54:05;;;;;;;;;;;;;;;;;;5036210;28;20020;-27
2023/10/17 02:56:37;;;;;;;;;;;;;;;;;;5036157;28;20012;-24
2023/10/17 02:59:06;;;;;;;;;;;;;;;;;;5036270;28;19928;-25
2023/10/17 03:01:32;;;;;;;;;;;;;;;;;;5036059;28;19948;-25
2023/10/17 03:03:58;;;;;;;;;;;;;;;;;;5035857;28;19917;-28
2023/10/17 03:06:24;;;;;;;;;;;;;;;;;;5036046;28;19909;-22
2023/10/17 03:09:00;;;;;;;;;;;;;;;;;;5035951;28;19948;-22
2023/10/17 03:11:35;;;;;;;;;;;;;;;;;;5035859;28;19928;-25
2023/10/17 03:14:10;;;;;;;;;;;;;;;;;;5035801;28;19913;-26
2023/10/17 03:16:39;;;;;;;;;;;;;;;;;;5036219;28;20004;-23
2023/10/17 03:19:05;;;;;;;;;;;;;;;;;;5035838;28;20302;-23
2023/10/17 03:21:34;;;;;;;;;;;;;;;;;;5035689;28;19948;-23
2023/10/17 03:24:00;;;;;;;;;;;;;;;;;;5018175;28;19909;-24
2023/10/17 03:26:29;;;;;;;;;;;;;;;;;;5035649;28;19909;-30
2023/10/17 03:28:55;;;;;;;;;;;;;;;;;;5035920;28;19920;-22
2023/10/17 03:31:21;;;;;;;;;;;;;;;;;;5035560;28;20338;-21
2023/10/17 03:33:50;;;;;;;;;;;;;;;;;;5035381;28;19916;-26
2023/10/17 03:36:41;;;;;;;;;;;;;;;;;;5035721;28;19909;-26
2023/10/17 03:39:27;;;;;;;;;;;;;;;;;;5035399;28;19909;-26
2023/10/17 03:41:56;;;;;;;;;;;;;;;;;;5035573;28;19920;-20
2023/10/17 03:44:29;;;;;;;;;;;;;;;;;;5035246;28;19913;-31
2023/10/17 03:46:59;;;;;;;;;;;;;;;;;;5035209;28;19909;-26
2023/10/17 03:49:24;;;;;;;;;;;;;;;;;;5035124;28;19959;-26
2023/10/17 03:51:54;;;;;;;;;;;;;;;;;;5018198;28;19913;-24
2023/10/17 03:54:22;;;;;;;;;;;;;;;;;;5035084;28;19909;-23
2023/10/17 03:56:55;;;;;;;;;;;;;;;;;;5035070;28;19905;-24
2023/10/17 03:59:43;;;;;;;;;;;;;;;;;;5034744;28;19912;-23
2023/10/17 04:02:12;;;;;;;;;;;;;;;;;;5034170;28;19905;-24
2023/10/17 04:04:47;;;;;;;;;;;;;;;;;;5034681;28;19917;-27
2023/10/17 04:07:13;;;;;;;;;;;;;;;;;;5034822;28;20335;-25
2023/10/17 04:12:48;;;;;;;;;;;;;;;;;;5034834;28;19979;-25
2023/10/17 04:15:18;;;;;;;;;;;;;;;;;;5035070;28;19941;-22
2023/10/17 04:17:46;;;;;;;;;;;;;;;;;;5035672;28;20263;-25
2023/10/17 04:20:12;;;;;;;;;;;;;;;;;;5034717;28;20009;-23
2023/10/17 04:22:38;;;;;;;;;;;;;;;;;;5034524;28;19909;-23
2023/10/17 04:25:17;;;;;;;;;;;;;;;;;;5034878;28;19909;-23
2023/10/17 04:27:45;;;;;;;;;;;;;;;;;;5034951;28;19909;-23
2023/10/17 04:30:15;;;;;;;;;;;;;;;;;;5017032;28;20391;-23
2023/10/17 04:32:42;;;;;;;;;;;;;;;;;;5034280;28;20339;-27
2023/10/17 04:35:08;;;;;;;;;;;;;;;;;;5034901;28;19962;-28
2023/10/17 04:37:37;;;;;;;;;;;;;;;;;;5034435;28;19967;-25
2023/10/17 04:45:14;;;;;;;;;;;;;;;;;;5034348;28;19909;-22
2023/10/17 04:47:43;;;;;;;;;;;;;;;;;;5016989;28;20016;-26
2023/10/17 04:50:11;;;;;;;;;;;;;;;;;;5017005;28;19909;-22
2023/10/17 04:52:46;;;;;;;;;;;;;;;;;;5034037;28;20015;-26
2023/10/17 04:55:19;;;;;;;;;;;;;;;;;;5034217;28;19913;-22
2023/10/17 05:03:14;;;;;;;;;;;;;;;;;;5034069;28;19920;-24
2023/10/17 05:05:40;;;;;;;;;;;;;;;;;;5034404;28;19913;-25
2023/10/17 05:08:18;;;;;;;;;;;;;;;;;;5034384;28;19909;-28
2023/10/17 06:17:23;;;;;;;;;;;;;;;;;;5036335;28;19972;-28
2023/10/17 06:19:49;;;;;;;;;;;;;;;;;;5036118;28;19905;-24
2023/10/17 06:30:29;;;;;;;;;;;;;;;;;;5036376;28;19974;-25
2023/10/17 06:33:17;;;;;;;;;;;;;;;;;;5035794;28;19981;-28
2023/10/17 06:35:44;;;;;;;;;;;;;;;;;;5036164;28;19986;-23
2023/10/17 06:38:10;;;;;;;;;;;;;;;;;;5036777;28;19958;-24
2023/10/17 06:40:45;;;;;;;;;;;;;;;;;;5036575;28;20235;-25
2023/10/17 06:43:17;;;;;;;;;;;;;;;;;;5036003;28;19909;-28
2023/10/17 06:45:51;;;;;;;;;;;;;;;;;;5036064;28;20367;-22
2023/10/17 06:48:18;;;;;;;;;;;;;;;;;;5036282;28;20000;-28
2023/10/17 06:53:28;;;;;;;;;;;;;;;;;;5036143;28;20011;-23
2023/10/17 06:55:59;;;;;;;;;;;;;;;;;;5035889;28;19944;-26
2023/10/17 06:58:27;;;;;;;;;;;;;;;;;;5036006;28;19909;-22
2023/10/17 07:00:53;;;;;;;;;;;;;;;;;;5035736;28;19971;-25
2023/10/17 07:03:25;;;;;;;;;;;;;;;;;;5035570;28;19917;-25
2023/10/17 07:05:51;;;;;;;;;;;;;;;;;;5036040;28;19920;-21
2023/10/17 07:08:19;;;;;;;;;;;;;;;;;;5035688;28;19909;-26
2023/10/17 07:11:09;;;;;;;;;;;;;;;;;;5035964;28;19913;-27
2023/10/17 07:13:36;;;;;;;;;;;;;;;;;;5035561;28;19924;-27
2023/10/17 07:16:11;;;;;;;;;;;;;;;;;;5035493;28;19909;-26
2023/10/17 07:18:51;;;;;;;;;;;;;;;;;;5035738;28;19913;-26
2023/10/17 07:21:22;;;;;;;;;;;;;;;;;;5035442;28;19909;-27
2023/10/17 07:23:48;;;;;;;;;;;;;;;;;;5035178;28;19939;-28
2023/10/17 07:26:17;;;;;;;;;;;;;;;;;;5035723;28;19996;-31
2023/10/17 07:28:43;;;;;;;;;;;;;;;;;;5035353;28;20265;-28
2023/10/17 07:31:12;;;;;;;;;;;;;;;;;;5035349;28;19909;-24
2023/10/17 07:33:38;;;;;;;;;;;;;;;;;;5034693;28;19963;-24
2023/10/17 07:36:05;;;;;;;;;;;;;;;;;;5035209;28;19909;-23
2023/10/17 07:38:31;;;;;;;;;;;;;;;;;;5035280;28;19920;-27
2023/10/17 07:41:36;;;;;;;;;;;;;;;;;;5035333;28;19909;-23
2023/10/17 07:43:44;;;;;;;;;;;;;;;;;;5034537;28;20003;-28
2023/10/17 07:46:16;;;;;;;;;;;;;;;;;;5017771;28;20256;-20
2023/10/17 07:48:48;;;;;;;;;;;;;;;;;;5035236;28;20432;-25
2023/10/17 07:51:15;;;;;;;;;;;;;;;;;;5035122;28;20016;-26
2023/10/17 07:53:50;;;;;;;;;;;;;;;;;;5034870;28;19920;-26
2023/10/17 07:56:24;;;;;;;;;;;;;;;;;;5017792;28;19913;-26
2023/10/17 07:58:56;;;;;;;;;;;;;;;;;;5035110;28;19920;-24
2023/10/17 08:01:31;;;;;;;;;;;;;;;;;;5034809;28;19916;-23
2023/10/17 08:03:57;;;;;;;;;;;;;;;;;;5034491;28;19931;-26
2023/10/17 08:06:28;;;;;;;;;;;;;;;;;;5017460;28;19923;-23
2023/10/17 08:08:56;;;;;;;;;;;;;;;;;;5035010;28;19963;-32
2023/10/17 08:11:31;;;;;;;;;;;;;;;;;;5034590;28;20518;-27
2023/10/17 08:13:57;;;;;;;;;;;;;;;;;;5034573;28;19981;-27
2023/10/17 08:16:28;;;;;;;;;;;;;;;;;;5034593;28;19913;-23
2023/10/17 08:19:13;;;;;;;;;;;;;;;;;;5034811;28;19909;-26
2023/10/17 08:24:26;;;;;;;;;;;;;;;;;;5034996;28;19923;-27
2023/10/17 08:27:13;;;;;;;;;;;;;;;;;;5034599;28;19909;-26
2023/10/17 08:29:38;;;;;;;;;;;;;;;;;;5034408;28;19913;-26
2023/10/17 08:32:15;;;;;;;;;;;;;;;;;;5034667;28;20348;-23
2023/10/17 08:34:43;;;;;;;;;;;;;;;;;;5034678;28;20252;-30
2023/10/17 08:37:10;;;;;;;;;;;;;;;;;;5017056;28;19971;-26
2023/10/17 08:42:05;;;;;;;;;;;;;;;;;;5034422;28;20297;-25
2023/10/17 08:44:31;;;;;;;;;;;;;;;;;;5036857;28;19916;-26
2023/10/17 08:46:57;;;;;;;;;;;;;;;;;;5038103;28;20316;-24
2023/10/17 08:49:27;;;;;;;;;;;;;;;;;;5038129;28;20062;-27
2023/10/17 08:51:53;;;;;;;;;;;;;;;;;;5037857;28;20340;-23
2023/10/17 08:54:20;;;;;;;;;;;;;;;;;;5038329;28;19913;-23
2023/10/17 08:56:47;;;;;;;;;;;;;;;;;;5038016;28;19912;-28
2023/10/17 08:59:15;;;;;;;;;;;;;;;;;;5037910;28;19913;-23
2023/10/17 09:01:41;;;;;;;;;;;;;;;;;;5037892;28;19973;-29
2023/10/17 09:04:07;;;;;;;;;;;;;;;;;;5037633;28;20034;-23
2023/10/17 09:06:37;;;;;;;;;;;;;;;;;;5038138;28;20232;-25
2023/10/17 09:11:29;;;;;;;;;;;;;;;;;;5037684;28;19987;-22
2023/10/17 09:16:24;;;;;;;;;;;;;;;;;;5037620;28;19909;-29
2023/10/17 09:18:54;;;;;;;;;;;;;;;;;;5019960;28;19909;-27
2023/10/17 09:21:23;;;;;;;;;;;;;;;;;;5037611;28;19963;-28
2023/10/17 09:23:50;;;;;;;;;;;;;;;;;;5037559;28;20301;-25
2023/10/17 09:26:20;;;;;;;;;;;;;;;;;;5037511;28;19920;-28
2023/10/17 09:28:47;;;;;;;;;;;;;;;;;;5037498;28;19909;-25
2023/10/17 09:31:15;;;;;;;;;;;;;;;;;;5037511;28;19913;-31
2023/10/17 09:33:43;;;;;;;;;;;;;;;;;;5037759;28;19913;-26
2023/10/17 09:36:09;;;;;;;;;;;;;;;;;;5037790;28;20243;-20
2023/10/17 09:38:41;;;;;;;;;;;;;;;;;;5037585;28;19910;-24
2023/10/17 09:41:08;;;;;;;;;;;;;;;;;;5019910;28;20232;-27
2023/10/17 09:43:36;;;;;;;;;;;;;;;;;;5037290;28;19909;-25
2023/10/17 09:46:02;;;;;;;;;;;;;;;;;;5037232;28;19919;-24
2023/10/17 09:48:28;;;;;;;;;;;;;;;;;;5037573;28;20004;-21
2023/10/17 09:50:54;;;;;;;;;;;;;;;;;;5037205;28;19909;-29
2023/10/17 09:53:20;;;;;;;;;;;;;;;;;;5019698;28;20016;-21
2023/10/17 09:55:47;;;;;;;;;;;;;;;;;;5036458;28;19967;-24
2023/10/17 09:58:13;;;;;;;;;;;;;;;;;;5036951;28;19913;-24
2023/10/17 10:00:39;;;;;;;;;;;;;;;;;;5037027;28;19996;-22
2023/10/17 10:03:05;;;;;;;;;;;;;;;;;;5019265;28;20302;-27
2023/10/17 10:05:32;;;;;;;;;;;;;;;;;;5037178;28;20004;-28
2023/10/17 10:07:58;;;;;;;;;;;;;;;;;;5036713;28;19916;-22
2023/10/17 10:10:24;;;;;;;;;;;;;;;;;;5036798;28;19909;-26
2023/10/17 10:12:50;;;;;;;;;;;;;;;;;;5036724;28;19920;-26
2023/10/17 10:15:16;;;;;;;;;;;;;;;;;;5036890;28;19909;-23
2023/10/17 10:17:42;;;;;;;;;;;;;;;;;;5036523;28;20004;-23
2023/10/17 10:20:08;;;;;;;;;;;;;;;;;;5036934;28;19920;-30
2023/10/17 10:22:34;;;;;;;;;;;;;;;;;;5018780;28;19941;-23
2023/10/17 10:25:00;;;;;;;;;;;;;;;;;;5019575;28;20324;-27
2023/10/17 10:27:27;;;;;;;;;;;;;;;;;;5018829;28;19909;-23
2023/10/17 10:29:53;;;;;;;;;;;;;;;;;;5036581;28;19960;-25
2023/10/17 10:32:20;;;;;;;;;;;;;;;;;;5036213;28;20348;-30
2023/10/17 10:34:46;;;;;;;;;;;;;;;;;;5036665;28;19909;-25
2023/10/17 10:37:13;;;;;;;;;;;;;;;;;;5036283;28;20340;-23
2023/10/17 10:39:39;;;;;;;;;;;;;;;;;;5036353;28;20011;-25
2023/10/17 10:42:08;;;;;;;;;;;;;;;;;;5036175;28;19924;-28
2023/10/17 10:44:34;;;;;;;;;;;;;;;;;;5036084;28;20359;-27
2023/10/17 10:47:00;;;;;;;;;;;;;;;;;;5036142;28;19974;-28
2023/10/17 10:49:26;;;;;;;;;;;;;;;;;;5036231;28;19939;-26
2023/10/17 10:51:52;;;;;;;;;;;;;;;;;;5035858;28;20336;-24
2023/10/17 10:54:18;;;;;;;;;;;;;;;;;;5035986;28;20000;-25
2023/10/17 10:56:44;;;;;;;;;;;;;;;;;;5036068;28;19906;-21
2023/10/17 10:59:11;;;;;;;;;;;;;;;;;;5035819;28;19916;-29
2023/10/17 11:01:37;;;;;;;;;;;;;;;;;;5035683;28;19905;-26
2023/10/17 11:04:07;;;;;;;;;;;;;;;;;;5035444;28;20047;-26
2023/10/17 11:06:35;;;;;;;;;;;;;;;;;;5035410;28;19970;-30
2023/10/17 11:09:02;;;;;;;;;;;;;;;;;;5034965;28;19982;-22
2023/10/17 11:11:30;;;;;;;;;;;;;;;;;;5035721;28;19921;-23
2023/10/17 11:13:56;;;;;;;;;;;;;;;;;;5035359;28;19919;-23
2023/10/17 11:16:24;;;;;;;;;;;;;;;;;;5035195;28;19967;-24
2023/10/17 11:18:50;;;;;;;;;;;;;;;;;;5035408;28;19978;-21
2023/10/17 11:21:16;;;;;;;;;;;;;;;;;;5035483;28;20275;-24
2023/10/17 11:23:46;;;;;;;;;;;;;;;;;;5035185;28;20047;-25
2023/10/17 11:26:12;;;;;;;;;;;;;;;;;;5035629;28;20015;-24
2023/10/17 11:28:51;;;;;;;;;;;;;;;;;;5113262;27;19919;-27
2023/10/17 11:31:24;;;;;;;;;;;;;;;;;;5112439;28;19916;-27
2023/10/17 11:33:50;;;;;;;;;;;;;;;;;;5112207;28;19965;-25
2023/10/17 11:36:22;;;;;;;;;;;;;;;;;;5112357;28;19908;-28
2023/10/17 11:38:48;;;;;;;;;;;;;;;;;;5112310;28;19912;-30
2023/10/17 11:41:15;;;;;;;;;;;;;;;;;;5111127;28;20391;-26
2023/10/17 11:43:54;;;;;;;;;;;;;;;;;;5112011;28;19907;-27
2023/10/17 11:46:24;;;;;;;;;;;;;;;;;;5112013;28;19908;-23
2023/10/17 11:48:54;;;;;;;;;;;;;;;;;;5112055;28;19908;-28
2023/10/17 11:51:20;;;;;;;;;;;;;;;;;;5112111;28;19908;-27
2023/10/17 11:53:45;;;;;;;;;;;;;;;;;;5111954;28;20006;-24
2023/10/17 11:56:14;;;;;;;;;;;;;;;;;;5112219;28;20020;-25
2023/10/17 11:58:40;;;;;;;;;;;;;;;;;;5111838;28;19919;-28
2023/10/17 12:01:06;;;;;;;;;;;;;;;;;;5112058;28;19908;-26
2023/10/17 12:03:32;;;;;;;;;;;;;;;;;;5110603;28;19908;-22
2023/10/17 12:06:00;;;;;;;;;;;;;;;;;;5110756;28;19998;-29
2023/10/17 12:08:29;;;;;;;;;;;;;;;;;;5111958;28;19911;-21
2023/10/17 12:10:55;;;;;;;;;;;;;;;;;;5111680;28;20253;-26
2023/10/17 12:13:21;;;;;;;;;;;;;;;;;;5111565;28;19909;-27
2023/10/17 12:15:47;;;;;;;;;;;;;;;;;;5111829;28;19912;-30
2023/10/17 12:18:13;;;;;;;;;;;;;;;;;;5111913;28;20011;-27
2023/10/17 12:20:42;;;;;;;;;;;;;;;;;;5111481;28;20370;-25
2023/10/17 12:23:09;;;;;;;;;;;;;;;;;;5111692;28;20310;-22
2023/10/17 12:25:36;;;;;;;;;;;;;;;;;;5111800;28;19908;-24
2023/10/17 12:28:02;;;;;;;;;;;;;;;;;;5126168;28;19930;-24
2023/10/17 12:30:35;;;;;;;;;;;;;;;;;;5131771;28;19920;-21
2023/10/17 12:33:01;;;;;;;;;;;;;;;;;;5131434;28;19915;-24
2023/10/17 12:35:30;;;;;;;;;;;;;;;;;;5131772;28;19912;-23
2023/10/17 12:38:05;;;;;;;;;;;;;;;;;;5130676;28;19995;-22
2023/10/17 12:40:31;;;;;;;;;;;;;;;;;;5117613;28;19912;-27
2023/10/17 12:42:57;;;;;;;;;;;;;;;;;;5117945;28;19911;-24
2023/10/17 12:45:24;;;;;;;;;;;;;;;;;;5117686;28;19908;-21
2023/10/17 12:47:50;;;;;;;;;;;;;;;;;;5117743;28;20309;-25
2023/10/17 12:50:19;;;;;;;;;;;;;;;;;;5117365;28;19930;-29
2023/10/17 12:52:45;;;;;;;;;;;;;;;;;;5117480;28;19907;-26
2023/10/17 12:55:14;;;;;;;;;;;;;;;;;;5117761;28;19908;-26
2023/10/17 12:57:40;;;;;;;;;;;;;;;;;;5117434;28;19907;-24
2023/10/17 13:00:09;;;;;;;;;;;;;;;;;;5117512;28;19926;-27
2023/10/17 13:02:35;;;;;;;;;;;;;;;;;;5117519;28;20010;-25
2023/10/17 13:05:01;;;;;;;;;;;;;;;;;;5117299;28;19912;-28
2023/10/17 13:07:27;;;;;;;;;;;;;;;;;;5117262;28;20014;-26
2023/10/17 13:09:53;;;;;;;;;;;;;;;;;;5117605;28;19947;-25
2023/10/17 13:12:19;;;;;;;;;;;;;;;;;;5117145;28;19947;-25
2023/10/17 13:14:45;;;;;;;;;;;;;;;;;;5117088;28;19907;-22
2023/10/17 13:17:13;;;;;;;;;;;;;;;;;;5116984;28;20319;-24
2023/10/17 13:19:42;;;;;;;;;;;;;;;;;;5116882;28;19991;-22
2023/10/17 13:22:14;;;;;;;;;;;;;;;;;;5116723;28;19908;-22
2023/10/17 13:24:40;;;;;;;;;;;;;;;;;;5117209;28;19999;-22
2023/10/17 13:27:06;;;;;;;;;;;;;;;;;;5116786;28;20049;-25
2023/10/17 13:29:32;;;;;;;;;;;;;;;;;;5117491;28;19907;-24
2023/10/17 13:32:00;;;;;;;;;;;;;;;;;;5116844;28;20266;-23
2023/10/17 13:34:28;;;;;;;;;;;;;;;;;;5116735;28;19907;-23
2023/10/17 13:36:53;;;;;;;;;;;;;;;;;;5116732;28;19999;-25
2023/10/17 13:39:24;;;;;;;;;;;;;;;;;;5116653;28;20373;-23
2023/10/17 13:41:50;;;;;;;;;;;;;;;;;;5116635;28;19915;-26
2023/10/17 13:44:16;;;;;;;;;;;;;;;;;;5116875;28;19908;-27
2023/10/17 13:46:42;;;;;;;;;;;;;;;;;;5098450;28;20246;-22
2023/10/17 13:49:09;;;;;;;;;;;;;;;;;;5116901;28;19908;-25
2023/10/17 13:51:34;;;;;;;;;;;;;;;;;;5115480;28;19964;-27
2023/10/17 13:54:00;;;;;;;;;;;;;;;;;;5116491;28;19907;-25
2023/10/17 13:56:27;;;;;;;;;;;;;;;;;;5098423;28;20077;-27
2023/10/17 13:58:53;;;;;;;;;;;;;;;;;;5116516;28;19908;-28
2023/10/17 14:03:57;;;;;;;;;;;;;;;;;;5116121;28;20243;-24
2023/10/17 14:06:23;;;;;;;;;;;;;;;;;;5116402;28;19914;-28
2023/10/17 14:08:50;;;;;;;;;;;;;;;;;;5116382;28;19922;-30
2023/10/17 14:11:19;;;;;;;;;;;;;;;;;;5116043;28;19918;-26
2023/10/17 14:13:45;;;;;;;;;;;;;;;;;;5116229;28;20327;-29
2023/10/17 14:16:11;;;;;;;;;;;;;;;;;;5116153;28;19943;-25
2023/10/17 14:21:40;;;;;;;;;;;;;;;;;;5116024;28;19918;-23
2023/10/17 14:24:27;;;;;;;;;;;;;;;;;;5116025;28;19929;-23
2023/10/17 14:26:53;;;;;;;;;;;;;;;;;;5115759;28;20047;-26
2023/10/17 14:29:21;;;;;;;;;;;;;;;;;;5115852;28;19929;-26
2023/10/17 14:31:46;;;;;;;;;;;;;;;;;;5115601;28;20211;-26
2023/10/17 14:34:12;;;;;;;;;;;;;;;;;;5115863;28;19969;-27
2023/10/17 14:36:38;;;;;;;;;;;;;;;;;;5115756;28;19962;-28
2023/10/17 14:39:09;;;;;;;;;;;;;;;;;;5115670;28;19908;-25
2023/10/17 14:41:36;;;;;;;;;;;;;;;;;;5115569;28;19908;-23
2023/10/17 14:44:03;;;;;;;;;;;;;;;;;;5097361;28;19918;-21
2023/10/17 14:46:30;;;;;;;;;;;;;;;;;;5115097;28;20254;-26
2023/10/17 14:48:56;;;;;;;;;;;;;;;;;;5115259;28;20354;-28
2023/10/17 14:51:22;;;;;;;;;;;;;;;;;;5115242;28;19919;-24
2023/10/17 14:53:48;;;;;;;;;;;;;;;;;;5115307;28;20396;-28
2023/10/17 14:56:14;;;;;;;;;;;;;;;;;;5115639;28;19908;-25
2023/10/17 14:58:40;;;;;;;;;;;;;;;;;;5115605;28;20025;-23
2023/10/17 15:01:06;;;;;;;;;;;;;;;;;;5115247;28;19973;-25
2023/10/17 15:03:32;;;;;;;;;;;;;;;;;;5115199;28;19923;-25
2023/10/17 15:05:59;;;;;;;;;;;;;;;;;;5115097;28;20265;-24
2023/10/17 15:08:25;;;;;;;;;;;;;;;;;;5114975;28;19980;-21
2023/10/17 15:10:51;;;;;;;;;;;;;;;;;;5115010;28;19908;-27
2023/10/17 15:13:17;;;;;;;;;;;;;;;;;;5114927;28;19968;-29
2023/10/17 15:15:43;;;;;;;;;;;;;;;;;;5114669;28;19990;-26
2023/10/17 15:18:09;;;;;;;;;;;;;;;;;;5114635;28;19914;-26
2023/10/17 15:20:35;;;;;;;;;;;;;;;;;;5114528;28;20403;-25
2023/10/17 15:23:01;;;;;;;;;;;;;;;;;;5114690;28;19943;-25
2023/10/17 15:25:28;;;;;;;;;;;;;;;;;;5114503;28;19912;-24
2023/10/17 15:27:57;;;;;;;;;;;;;;;;;;5114227;28;19920;-25
2023/10/17 15:30:23;;;;;;;;;;;;;;;;;;5114731;28;19908;-26
2023/10/17 15:32:49;;;;;;;;;;;;;;;;;;5114360;28;20317;-20
2023/10/17 15:35:15;;;;;;;;;;;;;;;;;;5096383;28;20322;-25
2023/10/17 15:37:47;;;;;;;;;;;;;;;;;;5114754;28;19907;-29
2023/10/17 15:40:16;;;;;;;;;;;;;;;;;;5114835;28;19908;-29
2023/10/17 15:42:43;;;;;;;;;;;;;;;;;;5114587;28;19908;-25
2023/10/17 15:45:11;;;;;;;;;;;;;;;;;;5114542;28;19908;-28
2023/10/17 15:47:38;;;;;;;;;;;;;;;;;;5114839;28;19915;-22
2023/10/17 15:50:04;;;;;;;;;;;;;;;;;;5114469;28;19907;-21
2023/10/17 15:52:30;;;;;;;;;;;;;;;;;;5114572;28;20228;-27
2023/10/17 15:54:56;;;;;;;;;;;;;;;;;;5114293;28;19914;-23
2023/10/17 15:57:23;;;;;;;;;;;;;;;;;;5114551;28;19916;-22
2023/10/17 15:59:50;;;;;;;;;;;;;;;;;;5114465;28;19908;-23
2023/10/17 16:02:16;;;;;;;;;;;;;;;;;;5096279;28;19909;-28
2023/10/17 16:04:41;;;;;;;;;;;;;;;;;;5114843;28;20003;-24
2023/10/17 16:07:11;;;;;;;;;;;;;;;;;;5114321;28;20323;-26
2023/10/17 16:09:39;;;;;;;;;;;;;;;;;;5114449;28;19908;-23
2023/10/17 16:12:05;;;;;;;;;;;;;;;;;;5114199;28;20360;-24
2023/10/17 16:14:31;;;;;;;;;;;;;;;;;;5116714;28;19915;-26
2023/10/17 16:16:57;;;;;;;;;;;;;;;;;;5118241;28;19908;-30
2023/10/17 16:19:24;;;;;;;;;;;;;;;;;;5118153;28;19907;-24
2023/10/17 16:21:50;;;;;;;;;;;;;;;;;;5118286;28;19947;-29
2023/10/17 16:24:16;;;;;;;;;;;;;;;;;;5117790;28;19908;-24
2023/10/17 16:26:43;;;;;;;;;;;;;;;;;;5117496;28;20018;-27
2023/10/17 16:29:10;;;;;;;;;;;;;;;;;;5117737;28;19931;-22
2023/10/17 16:31:36;;;;;;;;;;;;;;;;;;5117958;28;19993;-23
2023/10/17 16:34:02;;;;;;;;;;;;;;;;;;5117743;28;19937;-28
2023/10/17 16:36:28;;;;;;;;;;;;;;;;;;5117851;28;19951;-20
2023/10/17 16:38:54;;;;;;;;;;;;;;;;;;5117723;28;19908;-23
2023/10/17 16:41:19;;;;;;;;;;;;;;;;;;5118019;28;20200;-24
2023/10/17 16:43:45;;;;;;;;;;;;;;;;;;5117466;28;20003;-24
2023/10/17 16:46:12;;;;;;;;;;;;;;;;;;5117382;28;20400;-23
2023/10/17 16:48:38;;;;;;;;;;;;;;;;;;5117178;28;19955;-26
2023/10/17 16:51:04;;;;;;;;;;;;;;;;;;5117332;28;19914;-25
2023/10/17 16:53:30;;;;;;;;;;;;;;;;;;5117106;28;19915;-25
2023/10/17 16:55:57;;;;;;;;;;;;;;;;;;5117498;28;19907;-26
2023/10/17 16:58:23;;;;;;;;;;;;;;;;;;5117548;28;19914;-26
2023/10/17 17:00:50;;;;;;;;;;;;;;;;;;5099158;28;19908;-28
2023/10/17 17:03:16;;;;;;;;;;;;;;;;;;5117353;28;20061;-25
2023/10/17 17:05:42;;;;;;;;;;;;;;;;;;5117316;28;20310;-26
2023/10/17 17:08:09;;;;;;;;;;;;;;;;;;5117149;28;19912;-23
2023/10/17 17:10:37;;;;;;;;;;;;;;;;;;5117160;28;19919;-27
2023/10/17 17:13:03;;;;;;;;;;;;;;;;;;5117362;28;19908;-27
2023/10/17 17:15:29;;;;;;;;;;;;;;;;;;5117047;28;19908;-27
2023/10/17 17:17:55;;;;;;;;;;;;;;;;;;5117279;28;19912;-24
2023/10/17 17:20:22;;;;;;;;;;;;;;;;;;5099104;28;20303;-27
2023/10/17 17:22:47;;;;;;;;;;;;;;;;;;5116759;28;19911;-27
2023/10/17 17:25:14;;;;;;;;;;;;;;;;;;5116735;28;19927;-24
2023/10/17 17:27:40;;;;;;;;;;;;;;;;;;5116641;28;19931;-28
2023/10/17 17:30:12;;;;;;;;;;;;;;;;;;5116805;28;19908;-26
2023/10/17 17:32:38;;;;;;;;;;;;;;;;;;5116587;28;19911;-24
2023/10/17 17:35:07;;;;;;;;;;;;;;;;;;5116538;28;20049;-27
2023/10/17 17:37:33;;;;;;;;;;;;;;;;;;5116580;28;19907;-23
2023/10/17 17:39:59;;;;;;;;;;;;;;;;;;5116802;28;19987;-27
2023/10/17 17:42:25;;;;;;;;;;;;;;;;;;5098790;28;20350;-31
2023/10/17 17:44:52;;;;;;;;;;;;;;;;;;5116242;28;20040;-26
2023/10/17 17:47:18;;;;;;;;;;;;;;;;;;5115981;28;19920;-30
2023/10/17 17:49:45;;;;;;;;;;;;;;;;;;5116169;28;19908;-26
2023/10/17 17:52:11;;;;;;;;;;;;;;;;;;5116401;28;19908;-25
2023/10/17 17:54:38;;;;;;;;;;;;;;;;;;5116103;28;20330;-25
2023/10/17 17:57:05;;;;;;;;;;;;;;;;;;5116117;28;19907;-25
2023/10/17 17:59:32;;;;;;;;;;;;;;;;;;5116009;28;19915;-28
2023/10/17 18:01:59;;;;;;;;;;;;;;;;;;5115822;28;19965;-31
2023/10/17 18:04:25;;;;;;;;;;;;;;;;;;5116131;28;19908;-27
2023/10/17 18:06:51;;;;;;;;;;;;;;;;;;5115796;28;19923;-26
2023/10/17 18:09:17;;;;;;;;;;;;;;;;;;5116509;28;19964;-23
2023/10/17 18:11:43;;;;;;;;;;;;;;;;;;5115733;28;20346;-26
2023/10/17 18:14:09;;;;;;;;;;;;;;;;;;5115637;28;19919;-21
2023/10/17 18:16:35;;;;;;;;;;;;;;;;;;5115606;28;19907;-33
2023/10/17 18:19:03;;;;;;;;;;;;;;;;;;5115782;28;19937;-26
2023/10/17 18:21:29;;;;;;;;;;;;;;;;;;5115874;28;19994;-24
2023/10/17 18:23:56;;;;;;;;;;;;;;;;;;5115525;28;19907;-25
2023/10/17 18:26:21;;;;;;;;;;;;;;;;;;5115802;28;19908;-24
2023/10/17 18:28:48;;;;;;;;;;;;;;;;;;5116086;28;20256;-22
2023/10/17 18:31:14;;;;;;;;;;;;;;;;;;5097577;28;19908;-25
2023/10/17 18:33:43;;;;;;;;;;;;;;;;;;5115912;28;19908;-22
2023/10/17 18:36:09;;;;;;;;;;;;;;;;;;5115303;28;19907;-26
2023/10/17 18:38:35;;;;;;;;;;;;;;;;;;5115531;28;19907;-22
2023/10/17 18:41:02;;;;;;;;;;;;;;;;;;5115408;28;19965;-28